• Join FlightAware (Why Join?)
  • Login
  • US Flag 
03:04AM EST


 

Airport Tracker/Info


-or-


 

Live Flight TrackerFlight Track Log ✈ EJA396 ✈ 22-Jul-2013 ✈ KHYA - CYPD / YPS

Flight Track Log - Related Links

Times and Time Zones

All times are in EDT time to prevent confusion due to time zone crossing. See the EJA396 flight status page for this flight to view local times or setup timezone preferences in your user account.

Time Position Orientation Groundspeed Altitude Reporting Facility
EDT Latitude Longitude Course Direction KTS MPH feet Rate Location/Type
12:21PM 41.6367 -70.2233 56° Northeast 225 259 4,200  Level Boston Center
12:22PM 41.6792 -70.1525 51° Northeast 241 277 7,700 3,720 Climbing Boston Center
12:23PM 41.7619 -70.1244 14° North 258 297 11,700 3,900 Climbing Boston Center
12:24PM 41.8467 -70.0936 15° North 283 326 15,500 3,360 Climbing Boston Center
12:25PM 41.9156 -70.0044 44° Northeast 313 360 18,500 2,400 Climbing Boston Center
12:26PM 42.1962 -69.6410 56° Northeast  Level FlightAware Approximate
12:26PM 41.9778 -69.8875 54° Northeast 341 392 20,400  Level Boston Center
12:27PM 42.0297 -69.7875 55° Northeast 374 430 22,400 1,980 Climbing Boston Center
12:28PM 42.1072 -69.6303 56° Northeast 405 466 24,500 1,800 Climbing Boston Center
12:29PM 42.1828 -69.4869 55° Northeast 435 501 26,000 1,380 Climbing Boston Center
12:30PM 42.2522 -69.3600 54° Northeast 463 533 27,300 1,380 Climbing Boston Center
12:31PM 42.3272 -69.2075 56° Northeast 475 547 28,800 1,500 Climbing Boston Center
12:32PM 42.4081 -69.0486 55° Northeast 497 572 30,300 1,500 Climbing Boston Center
12:33PM 42.4906 -68.8781 57° Northeast 497 572 31,900 1,500 Climbing Boston Center
12:34PM 42.5689 -68.7211 56° Northeast 497 572 33,400 1,500 Climbing Boston Center
12:35PM 42.6450 -68.5669 56° Northeast 497 572 34,900 1,740 Climbing Boston Center
12:36PM 42.7000 -68.4333 61° Northeast 490 564 37,000 1,560 Climbing Moncton Center
12:37PM 42.7850 -68.2836 52° Northeast 480 552 38,100 1,020 Climbing Boston Center
12:38PM 42.8586 -68.1342 56° Northeast 480 552 39,000 420 Climbing Boston Center
12:39PM 42.9167 -67.9833 62° Northeast 480 552 39,000  Level Moncton Center
12:40PM 43.0000 -67.8167 56° Northeast 490 564 39,000  Level Moncton Center
12:41PM 43.0667 -67.6667 59° Northeast 490 564 39,000  Level Moncton Center
12:42PM 43.1333 -67.5167 59° Northeast 500 575 39,000  Level Moncton Center
12:43PM 43.2333 -67.3167 55° Northeast 520 598 39,000  Level Moncton Center
12:44PM 43.3306 -67.1525 51° Northeast 501 577 39,000  Level Boston Center
12:45PM 43.3833 -67.0000 64° Northeast 510 587 39,000  Level Moncton Center
12:46PM 43.4833 -66.8167 53° Northeast 520 598 39,000  Level Moncton Center
12:47PM 43.5500 -66.6500 61° Northeast 520 598 39,000  Level Moncton Center
12:48PM 43.6167 -66.5000 58° Northeast 520 598 39,000  Level Moncton Center
12:49PM 43.7000 -66.3167 58° Northeast 520 598 39,000  Level Moncton Center
12:50PM 43.7667 -66.1500 61° Northeast 520 598 39,000  Level Moncton Center
12:51PM 43.8500 -65.9667 58° Northeast 520 598 39,000  Level Moncton Center
12:52PM 43.9333 -65.8167 52° Northeast 520 598 39,000  Level Moncton Center
12:53PM 44.0000 -65.6333 63° Northeast 520 598 39,000  Level Moncton Center
12:54PM 44.0833 -65.4667 55° Northeast 520 598 39,000  Level Moncton Center
12:55PM 44.1500 -65.2833 63° Northeast 520 598 39,000  Level Moncton Center
12:56PM 44.2167 -65.1000 63° Northeast 530 610 39,000  Level Moncton Center
12:57PM 44.3000 -64.9167 58° Northeast 530 610 39,000  Level Moncton Center
12:58PM 44.3667 -64.7500 61° Northeast 530 610 39,000  Level Moncton Center
12:59PM 44.4333 -64.5667 63° Northeast 530 610 39,000  Level Moncton Center
01:00PM 44.5000 -64.4000 61° Northeast 530 610 39,000 -180 Level Moncton Center
01:01PM 44.5833 -64.2167 57° Northeast 530 610 38,700 -600 Descending Moncton Center
01:02PM 44.6500 -64.0167 65° Northeast 530 610 37,800 -1,020 Descending Moncton Center
01:03PM 44.7333 -63.8333 57° Northeast 530 610 36,700 -1,020 Descending Moncton Center
01:04PM 44.8000 -63.6667 61° Northeast 530 610 35,800 -1,080 Descending Moncton Center
01:05PM 44.8667 -63.4833 63° Northeast 530 610 34,600 -1,200 Descending Moncton Center
01:06PM 44.9333 -63.3167 60° Northeast 540 621 33,400 -1,800 Descending Moncton Center
01:07PM 45.0167 -63.1167 59° Northeast 520 598 31,100 -2,700 Descending Moncton Center
01:08PM 45.0833 -62.9333 63° Northeast 520 598 28,000 -3,240 Descending Moncton Center
01:09PM 45.1500 -62.7667 60° Northeast 520 598 24,700 -3,240 Descending Moncton Center
01:10PM 45.2167 -62.6000 60° Northeast 480 552 21,600 -2,940 Descending Moncton Center
01:11PM 45.2500 -62.4167 75° East 450 518 18,900 -2,760 Descending Moncton Center
01:12PM 45.3167 -62.2833 55° Northeast 420 483 16,100 -2,700 Descending Moncton Center
01:13PM 45.3667 -62.1333 65° Northeast 410 472 13,600 -2,580 Descending Moncton Center
01:14PM 45.4167 -61.9833 65° Northeast 390 449 11,000 -2,280 Descending Moncton Center
01:15PM 45.4667 -61.8667 59° Northeast 350 403 9,100 -1,380 Descending Moncton Center
01:16PM 45.4833 -61.7500 78° East 300 345 8,300 -1,140 Descending Moncton Center
01:17PM 45.4833 -61.6500 90° East 280 322 6,900 -1,200 Descending Moncton Center
01:18PM 45.5000 -61.5333 78° East 270 311 5,900 -1,200 Descending Moncton Center
01:19PM 45.5167 -61.4333 77° East 270 311 4,500 -1,440 Descending Moncton Center
01:20PM 45.5333 -61.3333 77° East 260 299 3,100 -900 Descending Moncton Center
01:21PM 45.5500 -61.2500 74° East 240 276 2,800 -180 Descending Moncton Center
01:22PM 45.5500 -61.1500 90° East 230 265 2,800 -240 Level Moncton Center
01:23PM 45.6000 -61.1000 35° Northeast 220 253 2,400 -780 Descending Moncton Center
01:24PM 45.6500 -61.1167 347° North 200 230 1,300 -600 Descending Moncton Center
01:25PM 45.6833 -61.1667 314° West 200 230 1,300  Level Moncton Center
01:27PM 45.6500 -61.3667 321° Northwest  Level FlightAware Approximate
01:34PM 45.6567 -61.3681 321° Northwest  Level Estimated
01:35PM 45.6500 -61.3667 321° Northwest  Level FlightAware Approximate
01:36PM 45.6567 -61.3681 321° Northwest  Level Estimated
01:37PM 45.6500 -61.3667 321° Northwest  Level FlightAware Approximate
01:38PM 45.6567 -61.3681 321° Northwest  Level Estimated
01:39PM 45.6500 -61.3667 321° Northwest  Level FlightAware Approximate